Time;durP1;ratioP1;P1;durP2;ratioP2;P2;SDS_P1;SDS_P2;PMS_P1;PMS_P2;Temp;Humidity;BMP_temperature;BMP_pressure;BME280_temperature;BME280_humidity;BME280_pressure;Samples;Min_cycle;Max_cycle;Signal;HPM_P1;HPM_P2
2021/08/11 00:00:36;;;;;;;10.48;8.73;;;27.30;59.40;;;;;;4234706;28;20060;-47
2021/08/11 00:02:38;;;;;;;10.95;9.18;;;27.30;59.10;;;;;;4234819;28;20044;-47
2021/08/11 00:04:41;;;;;;;8.77;7.88;;;27.30;59.50;;;;;;4234585;28;20103;-51
2021/08/11 00:06:43;;;;;;;10.82;9.10;;;27.40;59.00;;;;;;4234455;28;20062;-52
2021/08/11 00:08:47;;;;;;;10.25;8.10;;;27.40;59.50;;;;;;4234527;28;20082;-51
2021/08/11 00:10:49;;;;;;;9.90;8.00;;;27.40;59.10;;;;;;4235086;28;20048;-47
2021/08/11 00:12:51;;;;;;;8.77;7.88;;;27.40;58.80;;;;;;4235242;28;20056;-47
2021/08/11 00:14:54;;;;;;;9.23;7.50;;;27.40;59.00;;;;;;4234966;28;20071;-52
2021/08/11 00:16:56;;;;;;;9.18;7.43;;;27.30;59.40;;;;;;4234925;28;20070;-47
2021/08/11 00:18:58;;;;;;;8.07;6.88;;;27.30;58.50;;;;;;4234897;28;20044;-48
2021/08/11 00:21:00;;;;;;;11.25;7.60;;;27.40;58.80;;;;;;4234793;28;20044;-47
2021/08/11 00:23:03;;;;;;;9.15;6.97;;;27.30;58.50;;;;;;4234530;28;20048;-49
2021/08/11 00:25:05;;;;;;;10.88;7.30;;;27.30;58.80;;;;;;4234491;28;20047;-46
2021/08/11 00:27:08;;;;;;;10.55;7.63;;;27.30;58.80;;;;;;4234298;28;20063;-56
2021/08/11 00:29:10;;;;;;;8.48;6.95;;;27.30;58.40;;;;;;4234808;28;20044;-53
2021/08/11 00:31:12;;;;;;;7.47;6.78;;;27.30;58.60;;;;;;4234730;28;20048;-49
2021/08/11 00:33:14;;;;;;;7.72;6.32;;;27.40;58.50;;;;;;4234475;28;20108;-52
2021/08/11 00:35:17;;;;;;;10.35;6.38;;;27.30;58.50;;;;;;4234425;28;20379;-46
2021/08/11 00:37:18;;;;;;;7.25;6.30;;;27.40;58.30;;;;;;4234651;28;20125;-56
2021/08/11 00:39:21;;;;;;;7.72;6.40;;;27.30;58.50;;;;;;4234525;28;20052;-57
2021/08/11 00:41:23;;;;;;;6.80;5.95;;;27.30;58.30;;;;;;4234579;28;20044;-48
2021/08/11 00:43:25;;;;;;;9.90;6.70;;;27.30;58.30;;;;;;4234568;28;20048;-55
2021/08/11 00:45:27;;;;;;;7.10;6.10;;;27.30;58.30;;;;;;4234413;28;20044;-50
2021/08/11 00:47:36;;;;;;;7.93;6.28;;;27.30;58.20;;;;;;4234561;28;20044;-51
2021/08/11 00:49:41;;;;;;;7.63;6.05;;;27.30;58.40;;;;;;4234516;28;20048;-48
2021/08/11 00:51:45;;;;;;;7.28;5.90;;;27.30;58.30;;;;;;4234450;28;20104;-51
2021/08/11 00:53:48;;;;;;;8.83;5.83;;;27.30;58.20;;;;;;4233838;28;20048;-54
2021/08/11 00:55:51;;;;;;;8.13;5.57;;;27.30;58.10;;;;;;4233742;28;20044;-53
2021/08/11 00:57:54;;;;;;;6.78;5.90;;;27.30;58.10;;;;;;4233189;28;20044;-49
2021/08/11 00:59:57;;;;;;;7.10;5.47;;;27.30;58.30;;;;;;4232693;28;20052;-50
2021/08/11 01:02:00;;;;;;;8.20;6.25;;;27.30;58.40;;;;;;4233440;28;20040;-56
2021/08/11 01:04:03;;;;;;;8.63;5.22;;;27.30;58.10;;;;;;4234060;28;20058;-50
2021/08/11 01:06:06;;;;;;;10.30;5.95;;;27.30;58.10;;;;;;4234200;28;20048;-54
2021/08/11 01:08:09;;;;;;;8.35;5.68;;;27.30;58.20;;;;;;4233344;28;20048;-52
2021/08/11 01:10:11;;;;;;;34.28;29.30;;;27.30;58.00;;;;;;4233946;28;20070;-52
2021/08/11 01:12:13;;;;;;;27.70;24.83;;;27.00;57.40;;;;;;4233809;28;20048;-54
2021/08/11 01:14:16;;;;;;;28.85;25.58;;;26.90;58.10;;;;;;4233456;28;20082;-49
2021/08/11 01:16:18;;;;;;;23.00;20.35;;;26.80;58.20;;;;;;4233497;28;20103;-49
2021/08/11 01:18:20;;;;;;;22.80;17.30;;;26.70;58.60;;;;;;4233708;28;20044;-47
2021/08/11 01:20:23;;;;;;;17.23;14.05;;;26.70;58.40;;;;;;4233589;28;20051;-47
2021/08/11 01:22:30;;;;;;;14.20;11.93;;;26.60;58.50;;;;;;4233607;28;20475;-49
2021/08/11 01:24:44;;;;;;;13.45;11.52;;;26.60;58.40;;;;;;4233698;28;20107;-47
2021/08/11 01:27:05;;;;;;;13.07;10.30;;;26.60;58.90;;;;;;4233589;28;20059;-48
2021/08/11 01:29:25;;;;;;;13.30;9.88;;;26.60;58.60;;;;;;4233625;28;20048;-47
2021/08/11 01:31:42;;;;;;;12.02;9.27;;;26.50;58.40;;;;;;4233589;28;20048;-46
2021/08/11 01:33:56;;;;;;;9.85;8.85;;;26.60;58.60;;;;;;4233446;28;20147;-46
2021/08/11 01:36:04;;;;;;;8.90;8.00;;;26.50;58.60;;;;;;4233269;28;20048;-46
2021/08/11 01:38:13;;;;;;;8.68;7.78;;;26.40;59.20;;;;;;4233275;28;20071;-50
2021/08/11 01:40:22;;;;;;;11.43;7.55;;;26.50;59.00;;;;;;4233226;28;20044;-53
2021/08/11 01:42:33;;;;;;;7.85;7.00;;;26.60;58.50;;;;;;4233297;28;20044;-48
2021/08/11 01:44:49;;;;;;;10.68;7.53;;;26.60;58.60;;;;;;4233190;28;20048;-49
2021/08/11 01:46:53;;;;;;;10.27;7.22;;;26.60;58.50;;;;;;4233085;28;20051;-52
2021/08/11 01:48:57;;;;;;;8.27;7.32;;;26.60;58.70;;;;;;4233009;28;20052;-46
2021/08/11 01:50:59;;;;;;;;;;;26.70;58.50;;;;;;4233311;28;20044;-46
2021/08/11 01:53:03;;;;;;;10.63;7.25;;;26.60;58.10;;;;;;4232686;28;19956;-47
2021/08/11 01:55:08;;;;;;;8.20;7.40;;;26.70;58.30;;;;;;4232964;28;20457;-46
2021/08/11 01:57:12;;;;;;;9.25;8.35;;;26.70;58.30;;;;;;4232933;28;20044;-47
2021/08/11 01:59:15;;;;;;;8.82;6.88;;;26.70;58.10;;;;;;4232950;28;20044;-46
2021/08/11 02:01:18;;;;;;;8.32;6.28;;;26.60;58.50;;;;;;4232631;28;20062;-48
2021/08/11 02:03:21;;;;;;;7.85;6.63;;;26.60;58.40;;;;;;4232560;28;20127;-46
2021/08/11 02:05:28;;;;;;;6.53;5.78;;;26.60;58.30;;;;;;4232702;28;20048;-45
2021/08/11 02:07:30;;;;;;;9.23;6.57;;;26.70;58.30;;;;;;4232784;28;20055;-45
2021/08/11 02:09:35;;;;;;;7.93;6.18;;;26.70;57.90;;;;;;4232708;28;20048;-47
2021/08/11 02:11:40;;;;;;;7.15;5.97;;;26.70;58.10;;;;;;4232869;28;20074;-49
2021/08/11 02:13:42;;;;;;;8.13;7.15;;;26.70;58.20;;;;;;4232741;28;20072;-48
2021/08/11 02:15:52;;;;;;;7.13;6.43;;;26.70;58.10;;;;;;4232725;28;20066;-47
2021/08/11 02:17:57;;;;;;;7.97;6.88;;;26.70;58.30;;;;;;4232694;28;20041;-49
2021/08/11 02:19:59;;;;;;;8.02;6.50;;;26.60;57.90;;;;;;4232427;28;20046;-48
2021/08/11 02:22:01;;;;;;;6.05;4.85;;;26.60;58.30;;;;;;4232700;28;20051;-50
2021/08/11 02:24:04;;;;;;;7.00;6.30;;;26.70;58.30;;;;;;4232676;28;20044;-47
2021/08/11 02:26:23;;;;;;;7.25;6.30;;;26.70;57.90;;;;;;4232364;28;20040;-47
2021/08/11 02:28:57;;;;;;;7.93;6.25;;;26.60;58.30;;;;;;4232561;28;20098;-49
2021/08/11 02:31:15;;;;;;;7.10;5.53;;;26.60;58.10;;;;;;4232538;28;20051;-47
2021/08/11 02:33:45;;;;;;;8.30;5.60;;;26.60;58.30;;;;;;4232434;28;20074;-48
2021/08/11 02:36:03;;;;;;;7.80;5.65;;;26.60;58.40;;;;;;4232428;28;20047;-48
2021/08/11 02:38:33;;;;;;;7.45;5.32;;;26.70;58.20;;;;;;4232456;28;20073;-47
2021/08/11 02:40:43;;;;;;;6.93;5.20;;;26.70;58.50;;;;;;4232494;28;20051;-47
2021/08/11 02:42:53;;;;;;;7.75;6.68;;;26.70;58.00;;;;;;4232511;28;20070;-50
2021/08/11 02:44:59;;;;;;;9.55;6.88;;;26.70;57.90;;;;;;4232218;28;20044;-52
2021/08/11 02:47:03;;;;;;;12.93;5.82;;;26.60;58.00;;;;;;4232420;28;20048;-46
2021/08/11 02:49:08;;;;;;;7.13;5.85;;;26.60;58.10;;;;;;4232326;28;20063;-45
2021/08/11 02:51:10;;;;;;;10.52;6.97;;;26.70;58.00;;;;;;4232288;28;20089;-47
2021/08/11 02:53:15;;;;;;;8.00;6.05;;;26.70;57.90;;;;;;4232396;28;20048;-49
2021/08/11 02:55:18;;;;;;;10.02;6.50;;;26.70;57.90;;;;;;4232150;28;20052;-47
2021/08/11 02:57:20;;;;;;;6.90;6.20;;;26.70;57.90;;;;;;4232415;28;20055;-48
2021/08/11 02:59:24;;;;;;;9.80;6.47;;;26.70;57.80;;;;;;4232326;28;20051;-47
2021/08/11 03:01:28;;;;;;;11.02;7.45;;;26.70;57.90;;;;;;4232009;28;20074;-46
2021/08/11 03:03:31;;;;;;;;;;;26.70;57.70;;;;;;4232584;28;20068;-47
2021/08/11 03:05:34;;;;;;;9.63;6.47;;;26.70;57.90;;;;;;4232235;28;19927;-48
2021/08/11 03:07:37;;;;;;;12.55;6.90;;;26.70;57.90;;;;;;4232367;28;20056;-47
2021/08/11 03:09:39;;;;;;;8.90;7.43;;;26.70;57.70;;;;;;4232098;28;20130;-47
2021/08/11 03:11:41;;;;;;;8.65;6.32;;;26.70;58.00;;;;;;4232171;28;20108;-48
2021/08/11 03:13:44;;;;;;;10.60;7.28;;;26.60;57.80;;;;;;4232148;28;20115;-47
2021/08/11 03:15:48;;;;;;;7.95;5.70;;;26.60;58.00;;;;;;4232139;28;20048;-50
2021/08/11 03:17:50;;;;;;;7.70;6.35;;;26.60;58.20;;;;;;4232211;28;20465;-53
2021/08/11 03:19:52;;;;;;;10.00;6.07;;;26.60;58.20;;;;;;4231410;28;20051;-47
2021/08/11 03:21:54;;;;;;;9.25;6.25;;;26.60;58.00;;;;;;4232159;28;20085;-46
2021/08/11 03:23:56;;;;;;;10.27;5.85;;;26.70;57.80;;;;;;4232211;28;20070;-46
2021/08/11 03:25:58;;;;;;;10.35;6.97;;;26.70;57.70;;;;;;4232135;28;20052;-47
2021/08/11 03:28:00;;;;;;;8.13;6.05;;;26.70;57.60;;;;;;4231915;28;20054;-48
2021/08/11 03:30:03;;;;;;;9.88;4.78;;;26.70;57.60;;;;;;4231606;28;20048;-47
2021/08/11 03:32:06;;;;;;;6.53;5.10;;;26.80;57.80;;;;;;4231526;28;20048;-48
2021/08/11 03:34:08;;;;;;;5.97;4.53;;;26.80;57.50;;;;;;4234614;28;20052;-47
2021/08/11 03:36:10;;;;;;;5.60;4.55;;;26.80;57.90;;;;;;4234665;28;20044;-46
2021/08/11 03:38:12;;;;;;;6.65;4.95;;;26.90;57.70;;;;;;4234732;28;20054;-47
2021/08/11 03:40:14;;;;;;;5.93;4.70;;;26.90;57.80;;;;;;4234514;28;20044;-47
2021/08/11 03:42:16;;;;;;;6.00;5.00;;;26.90;57.70;;;;;;4234444;28;20040;-51
2021/08/11 03:44:18;;;;;;;7.13;4.82;;;26.90;57.70;;;;;;4234711;28;20052;-49
2021/08/11 03:46:20;;;;;;;6.32;4.50;;;26.90;57.70;;;;;;4234585;28;20052;-47
2021/08/11 03:48:22;;;;;;;4.20;3.58;;;26.90;57.80;;;;;;4234327;28;20082;-49
2021/08/11 03:50:25;;;;;;;4.60;4.13;;;26.90;57.80;;;;;;4234344;28;20044;-48
2021/08/11 03:58:18;;;;;;;7.07;5.82;;;26.80;57.20;;;;;;4198225;28;1484379;-56
2021/08/11 04:00:20;;;;;;;6.35;5.57;;;26.80;57.50;;;;;;4246613;28;20044;-55
2021/08/11 04:02:22;;;;;;;5.55;4.30;;;26.80;57.40;;;;;;4246298;28;20054;-57
2021/08/11 04:04:25;;;;;;;7.13;4.93;;;26.90;57.70;;;;;;4246338;28;20048;-57
2021/08/11 04:06:27;;;;;;;4.75;4.28;;;26.90;57.60;;;;;;4246356;28;20050;-57
2021/08/11 04:08:29;;;;;;;7.15;4.30;;;26.90;57.40;;;;;;4246318;28;20044;-57
2021/08/11 04:10:31;;;;;;;5.40;4.35;;;26.90;57.60;;;;;;4246381;28;20981;-57
2021/08/11 04:12:33;;;;;;;4.72;4.22;;;26.90;57.60;;;;;;4246348;28;20127;-57
2021/08/11 04:14:35;;;;;;;6.75;5.47;;;26.90;57.60;;;;;;4246179;28;20044;-57
2021/08/11 04:16:37;;;;;;;7.07;4.97;;;26.90;57.20;;;;;;4246256;28;20093;-55
2021/08/11 04:18:39;;;;;;;9.55;5.63;;;26.90;57.50;;;;;;4245990;28;20051;-52
2021/08/11 04:20:41;;;;;;;15.82;9.10;;;26.90;57.90;;;;;;4246418;28;20050;-52
2021/08/11 04:22:43;;;;;;;20.23;10.50;;;26.80;58.30;;;;;;4244832;28;20048;-53
2021/08/11 04:24:45;;;;;;;20.70;8.85;;;26.70;58.70;;;;;;4245971;28;20047;-54
2021/08/11 04:26:47;;;;;;;19.83;10.00;;;26.70;58.90;;;;;;4246166;28;20050;-55
2021/08/11 04:28:49;;;;;;;23.38;10.98;;;26.70;58.70;;;;;;4245951;28;20048;-55
2021/08/11 04:30:52;;;;;;;21.30;11.40;;;26.60;58.90;;;;;;4245990;28;20051;-55
2021/08/11 04:32:54;;;;;;;17.48;9.35;;;26.60;59.10;;;;;;4246198;28;20051;-54
2021/08/11 04:34:56;;;;;;;18.80;9.15;;;26.70;58.80;;;;;;4246236;28;20043;-55
2021/08/11 04:36:58;;;;;;;16.85;9.50;;;26.60;58.70;;;;;;4246073;28;20044;-55
2021/08/11 04:39:00;;;;;;;14.60;9.85;;;26.60;58.70;;;;;;4246105;28;20044;-55
2021/08/11 04:41:02;;;;;;;20.83;10.27;;;26.60;58.90;;;;;;4246024;28;20051;-55
2021/08/11 04:43:08;;;;;;;19.17;11.00;;;26.60;59.10;;;;;;4245345;28;20054;-53
2021/08/11 04:45:10;;;;;;;27.42;12.75;;;26.60;58.80;;;;;;4245209;28;20054;-55
2021/08/11 04:47:12;;;;;;;42.55;15.90;;;26.60;59.10;;;;;;4245963;28;20122;-55
2021/08/11 04:49:14;;;;;;;42.13;16.73;;;26.60;59.20;;;;;;4245776;28;20058;-56
2021/08/11 04:51:16;;;;;;;43.47;16.17;;;26.60;59.30;;;;;;4245643;28;20048;-53
2021/08/11 04:53:18;;;;;;;42.55;16.20;;;26.60;59.20;;;;;;4245335;28;20054;-52
2021/08/11 04:55:20;;;;;;;35.45;15.02;;;26.60;59.10;;;;;;4245282;28;20062;-51
2021/08/11 04:57:22;;;;;;;33.47;14.98;;;26.60;59.50;;;;;;4245586;28;20103;-50
2021/08/11 04:59:24;;;;;;;28.67;14.77;;;26.50;59.20;;;;;;4228923;28;20052;-54
2021/08/11 05:01:26;;;;;;;29.10;15.63;;;26.50;59.40;;;;;;4228269;28;20048;-52
2021/08/11 05:03:36;;;;;;;32.92;15.05;;;26.50;59.70;;;;;;4228343;28;20075;-54
2021/08/11 05:05:41;;;;;;;36.47;14.68;;;26.50;59.50;;;;;;4228295;28;20052;-53
2021/08/11 05:07:43;;;;;;;25.70;12.00;;;26.50;59.50;;;;;;4199044;28;20048;-53
2021/08/11 05:09:45;;;;;;;28.25;13.75;;;26.50;59.20;;;;;;4217027;28;20048;-53
2021/08/11 05:11:47;;;;;;;23.80;13.60;;;26.50;59.40;;;;;;4217179;28;20082;-53
2021/08/11 05:13:50;;;;;;;29.27;12.32;;;26.50;59.50;;;;;;4217152;28;20052;-53
2021/08/11 05:15:52;;;;;;;24.48;13.20;;;26.40;59.50;;;;;;4216869;28;20447;-51
2021/08/11 05:17:54;;;;;;;24.40;13.20;;;26.50;59.60;;;;;;4216876;28;20049;-52
2021/08/11 05:19:56;;;;;;;23.67;13.25;;;26.40;59.10;;;;;;4217038;28;20455;-52
2021/08/11 05:21:58;;;;;;;18.67;11.77;;;26.40;59.30;;;;;;4216934;28;20045;-53
2021/08/11 05:24:01;;;;;;;18.85;11.63;;;26.40;59.40;;;;;;4217049;28;20044;-54
2021/08/11 05:26:03;;;;;;;17.08;11.75;;;26.40;59.40;;;;;;4217025;28;20051;-53
2021/08/11 05:28:05;;;;;;;19.58;13.10;;;26.50;59.40;;;;;;4216737;28;20048;-52
2021/08/11 05:30:08;;;;;;;17.25;11.80;;;26.40;59.60;;;;;;4216642;28;20048;-53
2021/08/11 05:32:11;;;;;;;20.80;11.88;;;26.40;59.20;;;;;;4216731;28;20048;-54
2021/08/11 05:34:14;;;;;;;17.60;10.82;;;26.40;59.30;;;;;;4216538;28;20055;-51
2021/08/11 05:36:16;;;;;;;17.42;9.73;;;26.40;59.30;;;;;;4216701;28;20055;-54
2021/08/11 05:38:17;;;;;;;15.95;9.60;;;26.40;59.10;;;;;;4216721;28;20044;-51
2021/08/11 05:40:20;;;;;;;19.75;9.55;;;26.40;59.20;;;;;;4216560;28;20052;-52
2021/08/11 05:42:22;;;;;;;18.00;9.45;;;26.40;59.30;;;;;;4216524;28;20048;-53
2021/08/11 05:44:24;;;;;;;16.40;8.93;;;26.40;59.10;;;;;;4216542;28;20059;-52
2021/08/11 05:46:26;;;;;;;13.15;8.80;;;26.40;59.00;;;;;;4216593;28;20061;-51
2021/08/11 05:48:28;;;;;;;15.40;9.48;;;26.40;59.20;;;;;;4216607;28;20048;-51
2021/08/11 05:50:30;;;;;;;14.70;9.07;;;26.40;59.40;;;;;;4216456;28;20044;-52
2021/08/11 05:52:33;;;;;;;14.45;8.93;;;26.40;59.10;;;;;;4216344;28;20044;-52
2021/08/11 05:54:35;;;;;;;13.20;8.63;;;26.40;58.90;;;;;;4216298;28;20059;-53
2021/08/11 05:56:40;;;;;;;12.38;8.10;;;26.40;58.90;;;;;;4214683;28;20048;-53
2021/08/11 05:58:42;;;;;;;11.55;8.32;;;26.40;58.70;;;;;;3859826;28;10000091;-51
2021/08/11 06:00:44;;;;;;;13.13;9.10;;;26.40;59.10;;;;;;4216336;28;20056;-51
2021/08/11 06:02:46;;;;;;;17.88;8.35;;;26.40;59.20;;;;;;4216290;28;20100;-52
2021/08/11 06:04:49;;;;;;;14.07;7.60;;;26.40;58.60;;;;;;4216267;28;20067;-53
2021/08/11 06:06:51;;;;;;;10.13;6.70;;;26.40;58.60;;;;;;4216303;28;20040;-53
2021/08/11 06:08:54;;;;;;;16.17;6.63;;;26.40;58.20;;;;;;4216119;28;20074;-53
2021/08/11 06:10:56;;;;;;;10.27;6.93;;;26.40;57.90;;;;;;4216329;28;20052;-53
2021/08/11 06:12:58;;;;;;;17.88;7.43;;;26.40;57.90;;;;;;4216310;28;20051;-54
2021/08/11 06:15:00;;;;;;;9.90;7.22;;;26.40;58.10;;;;;;4215977;28;20040;-54
2021/08/11 06:17:03;;;;;;;14.38;7.28;;;26.40;58.20;;;;;;4216075;28;20052;-52
2021/08/11 06:19:05;;;;;;;9.77;7.20;;;26.30;57.80;;;;;;4215018;28;20053;-54
2021/08/11 06:21:07;;;;;;;11.82;6.72;;;26.30;57.70;;;;;;4215926;28;20051;-54
2021/08/11 06:23:09;;;;;;;15.95;7.30;;;26.30;57.40;;;;;;4216077;28;20489;-51
2021/08/11 06:25:12;;;;;;;9.02;6.90;;;26.40;57.70;;;;;;4215895;28;20074;-52
2021/08/11 06:27:14;;;;;;;10.48;7.07;;;26.30;57.40;;;;;;4215855;28;20044;-52
2021/08/11 06:29:16;;;;;;;8.73;5.97;;;26.40;57.60;;;;;;4215798;28;20051;-53
2021/08/11 06:31:20;;;;;;;8.32;7.15;;;26.40;57.30;;;;;;4215848;28;20066;-53
2021/08/11 06:33:22;;;;;;;11.38;6.25;;;26.40;57.10;;;;;;4215742;28;20044;-53
2021/08/11 06:35:24;;;;;;;9.98;7.22;;;26.40;57.30;;;;;;4215898;28;20433;-53
2021/08/11 06:37:26;;;;;;;13.32;7.53;;;26.40;57.70;;;;;;4215764;28;20108;-53
2021/08/11 06:39:28;;;;;;;11.82;8.32;;;26.40;57.60;;;;;;4215627;28;20041;-53
2021/08/11 06:41:30;;;;;;;13.57;7.10;;;26.40;57.80;;;;;;4215729;28;20512;-52
2021/08/11 06:43:32;;;;;;;11.95;7.22;;;26.40;56.90;;;;;;4215347;28;20055;-52
2021/08/11 06:45:35;;;;;;;20.48;7.10;;;26.40;56.70;;;;;;4221786;28;20262;-55
2021/08/11 06:47:37;;;;;;;18.80;7.43;;;26.40;57.40;;;;;;4232308;28;20048;-54
2021/08/11 06:49:39;;;;;;;12.90;7.43;;;26.40;57.10;;;;;;4232185;28;20044;-55
2021/08/11 06:51:41;;;;;;;12.30;6.80;;;26.40;56.90;;;;;;4232115;28;20044;-55
2021/08/11 06:53:43;;;;;;;9.13;6.57;;;26.40;57.00;;;;;;4232149;28;20044;-54
2021/08/11 06:55:45;;;;;;;13.88;6.60;;;26.40;56.90;;;;;;4232025;28;20052;-55
2021/08/11 06:57:49;;;;;;;17.27;6.75;;;26.40;56.70;;;;;;4231979;28;20054;-55
2021/08/11 06:59:51;;;;;;;9.80;6.45;;;26.50;56.80;;;;;;4231961;28;20044;-54
2021/08/11 07:01:53;;;;;;;14.48;6.72;;;26.40;56.70;;;;;;4215552;28;20435;-56
2021/08/11 07:03:56;;;;;;;11.05;7.18;;;26.40;56.90;;;;;;4245975;28;20050;-55
2021/08/11 07:05:58;;;;;;;16.15;10.00;;;26.50;57.10;;;;;;4248833;28;20487;-55
2021/08/11 07:08:00;;;;;;;21.80;14.25;;;26.50;57.00;;;;;;4248678;28;20069;-52
2021/08/11 07:10:02;;;;;;;21.30;15.52;;;26.50;57.30;;;;;;4248908;28;20062;-53
2021/08/11 07:12:05;;;;;;;21.80;17.65;;;26.50;57.30;;;;;;4248686;28;20053;-51
2021/08/11 07:14:07;;;;;;;20.65;15.88;;;26.50;57.30;;;;;;4248690;28;20058;-46
2021/08/11 07:16:09;;;;;;;23.67;16.20;;;26.50;57.50;;;;;;4248616;28;20069;-46
2021/08/11 07:18:15;;;;;;;23.60;15.68;;;26.60;57.50;;;;;;4248549;28;20044;-48
2021/08/11 07:20:17;;;;;;;21.63;15.20;;;26.60;57.30;;;;;;4248522;28;20044;-47
2021/08/11 07:22:22;;;;;;;17.65;13.95;;;26.60;57.40;;;;;;4248819;28;20043;-55
2021/08/11 07:24:24;;;;;;;15.32;12.82;;;26.60;57.40;;;;;;4248771;28;20058;-48
2021/08/11 07:26:26;;;;;;;15.10;13.13;;;26.60;56.70;;;;;;4248529;28;20058;-53
2021/08/11 07:28:28;;;;;;;17.33;11.90;;;26.60;57.40;;;;;;4248494;28;20048;-54
2021/08/11 07:30:30;;;;;;;14.82;11.68;;;26.60;57.10;;;;;;4248156;28;20048;-49
2021/08/11 07:32:32;;;;;;;18.88;12.43;;;26.60;57.10;;;;;;4248480;28;20047;-48
2021/08/11 07:34:34;;;;;;;13.38;11.65;;;26.60;57.30;;;;;;4248194;28;20051;-53
2021/08/11 07:36:36;;;;;;;12.65;10.38;;;26.60;57.30;;;;;;3877273;28;9999691;-54
2021/08/11 07:38:38;;;;;;;16.27;11.43;;;26.60;57.10;;;;;;4230331;28;20046;-52
2021/08/11 07:40:41;;;;;;;22.67;10.68;;;26.60;57.50;;;;;;4230773;28;20040;-50
2021/08/11 07:42:44;;;;;;;13.48;9.73;;;26.60;57.30;;;;;;4230630;28;20064;-50
2021/08/11 07:44:46;;;;;;;12.23;10.00;;;26.70;56.90;;;;;;4230545;28;20040;-55
2021/08/11 07:46:53;;;;;;;12.82;9.35;;;26.70;57.30;;;;;;4230538;28;20072;-49
2021/08/11 07:48:55;;;;;;;13.45;9.98;;;26.70;57.30;;;;;;4230821;28;20048;-52
2021/08/11 07:50:57;;;;;;;12.68;9.68;;;26.70;56.80;;;;;;4230621;28;20054;-52
2021/08/11 07:52:59;;;;;;;12.65;9.07;;;26.70;56.90;;;;;;4230501;28;20048;-51
2021/08/11 07:55:01;;;;;;;13.48;9.30;;;26.70;56.50;;;;;;4230229;28;20051;-52
2021/08/11 07:57:03;;;;;;;14.63;8.20;;;26.80;56.80;;;;;;4230440;28;20059;-51
2021/08/11 07:59:05;;;;;;;14.60;8.30;;;26.70;56.80;;;;;;4230263;28;20060;-51
2021/08/11 08:01:07;;;;;;;10.38;7.78;;;26.70;56.70;;;;;;4230821;28;20040;-54
2021/08/11 08:03:09;;;;;;;10.30;7.45;;;26.70;56.80;;;;;;4230365;28;20072;-49
2021/08/11 08:05:12;;;;;;;20.48;18.27;;;26.70;56.60;;;;;;4229961;28;20051;-53
2021/08/11 08:07:14;;;;;;;10.70;9.57;;;26.70;56.60;;;;;;4230501;28;20056;-52
2021/08/11 08:09:16;;;;;;;12.07;9.10;;;26.70;56.70;;;;;;4229915;28;20058;-48
2021/08/11 08:11:18;;;;;;;13.05;9.70;;;26.70;56.80;;;;;;4229704;28;20516;-48
2021/08/11 08:13:21;;;;;;;15.13;10.70;;;26.70;56.60;;;;;;4229590;28;20048;-46
2021/08/11 08:15:23;;;;;;;15.90;12.07;;;26.70;56.40;;;;;;4229596;28;20067;-55
2021/08/11 08:17:25;;;;;;;13.30;10.27;;;26.70;56.60;;;;;;4229463;28;20055;-52
2021/08/11 08:19:46;;;;;;;15.50;12.25;;;26.70;56.60;;;;;;4217375;28;20048;-52
2021/08/11 08:21:48;;;;;;;13.27;10.73;;;26.70;56.20;;;;;;4212836;28;20045;-54
2021/08/11 08:23:50;;;;;;;14.75;10.75;;;26.80;55.90;;;;;;4212574;28;20051;-52
2021/08/11 08:25:52;;;;;;;14.52;10.50;;;26.80;56.30;;;;;;4212833;28;20052;-48
2021/08/11 08:27:54;;;;;;;13.10;9.95;;;26.80;56.30;;;;;;4213474;28;20055;-52
2021/08/11 08:30:17;;;;;;;12.63;8.82;;;26.80;55.90;;;;;;4214185;28;20079;-53
2021/08/11 08:32:19;;;;;;;9.27;7.80;;;26.80;55.80;;;;;;4214230;28;20120;-52
2021/08/11 08:34:21;;;;;;;12.10;8.68;;;26.80;55.40;;;;;;4213526;28;20044;-51
2021/08/11 08:36:23;;;;;;;12.00;8.60;;;26.80;55.80;;;;;;4227111;28;20048;-51
2021/08/11 08:38:25;;;;;;;9.75;8.10;;;26.80;55.20;;;;;;4229474;28;20068;-53
2021/08/11 08:40:47;;;;;;;15.70;7.50;;;26.80;55.70;;;;;;4229586;28;20047;-49
2021/08/11 08:42:49;;;;;;;11.13;7.33;;;26.80;55.80;;;;;;4232645;28;20047;-49
2021/08/11 08:44:51;;;;;;;9.55;7.25;;;26.80;55.00;;;;;;4232653;28;20327;-50
2021/08/11 08:46:56;;;;;;;7.50;6.20;;;26.80;55.70;;;;;;4232099;28;20048;-49
2021/08/11 08:48:58;;;;;;;13.07;6.63;;;26.90;55.00;;;;;;4232420;28;20070;-48
2021/08/11 08:51:03;;;;;;;10.02;6.75;;;26.80;55.60;;;;;;4232383;28;20055;-52
2021/08/11 08:53:05;;;;;;;;;;;26.80;55.70;;;;;;4232875;28;20058;-52
2021/08/11 08:55:07;;;;;;;8.35;6.07;;;26.80;55.80;;;;;;4232536;28;19919;-53
2021/08/11 08:57:09;;;;;;;8.43;5.60;;;26.80;55.50;;;;;;4232460;28;20059;-54
2021/08/11 08:59:11;;;;;;;8.07;5.93;;;26.80;55.50;;;;;;4232081;28;20052;-56
2021/08/11 09:01:13;;;;;;;11.18;6.78;;;26.90;55.50;;;;;;4232249;28;20044;-52
2021/08/11 09:03:16;;;;;;;17.48;11.85;;;26.90;55.30;;;;;;4232335;28;20048;-55
2021/08/11 09:05:18;;;;;;;17.90;9.40;;;26.90;53.70;;;;;;4232744;28;20104;-54
2021/08/11 09:07:21;;;;;;;11.52;9.32;;;26.90;55.20;;;;;;4233605;28;20048;-54
2021/08/11 09:09:36;;;;;;;17.13;9.25;;;26.90;54.90;;;;;;4233085;28;20051;-55
2021/08/11 09:11:41;;;;;;;16.77;8.98;;;26.90;54.20;;;;;;4232828;28;20072;-55
2021/08/11 09:13:43;;;;;;;10.85;8.55;;;26.90;54.10;;;;;;4232121;28;20044;-55
2021/08/11 09:15:48;;;;;;;9.65;8.65;;;26.90;54.90;;;;;;4232005;28;20119;-55
2021/08/11 09:17:50;;;;;;;13.85;8.20;;;26.90;53.70;;;;;;4232933;28;20062;-56
2021/08/11 09:19:52;;;;;;;8.80;7.78;;;26.90;53.50;;;;;;4232518;28;20040;-52
2021/08/11 09:22:01;;;;;;;8.95;8.05;;;26.90;54.30;;;;;;4214600;28;20040;-49
2021/08/11 09:24:17;;;;;;;9.90;7.88;;;26.90;54.60;;;;;;4232702;28;20048;-49
2021/08/11 09:26:19;;;;;;;8.43;7.18;;;26.90;54.80;;;;;;4232680;28;20048;-49
2021/08/11 09:28:21;;;;;;;11.23;7.72;;;26.90;53.80;;;;;;4232553;28;20103;-47
2021/08/11 09:30:33;;;;;;;10.73;6.90;;;26.90;54.50;;;;;;4232459;28;20048;-47
2021/08/11 09:32:59;;;;;;;8.52;6.45;;;26.90;53.70;;;;;;4232774;28;20055;-53
2021/08/11 09:35:08;;;;;;;7.50;5.57;;;26.90;54.60;;;;;;4216802;28;20050;-48
2021/08/11 09:37:10;;;;;;;6.90;6.00;;;26.90;53.10;;;;;;4233959;28;20044;-47
2021/08/11 09:39:12;;;;;;;8.18;5.75;;;27.00;52.30;;;;;;4234448;28;20059;-46
2021/08/11 09:41:14;;;;;;;7.35;5.95;;;27.00;53.10;;;;;;4234063;28;20116;-47
2021/08/11 09:43:32;;;;;;;8.45;5.18;;;27.10;52.40;;;;;;4234167;28;20040;-48
2021/08/11 09:45:57;;;;;;;9.40;5.65;;;27.00;52.50;;;;;;4234202;28;20050;-46
2021/08/11 09:48:02;;;;;;;8.68;4.82;;;27.00;52.30;;;;;;4234351;28;20044;-46
2021/08/11 09:50:07;;;;;;;7.35;4.72;;;27.00;52.70;;;;;;4234167;28;20072;-50
2021/08/11 09:52:09;;;;;;;5.65;4.45;;;27.00;52.90;;;;;;4234187;28;20493;-49
2021/08/11 09:54:11;;;;;;;5.60;5.00;;;26.90;53.00;;;;;;4234234;28;20044;-49
2021/08/11 09:56:14;;;;;;;6.97;4.50;;;26.90;52.90;;;;;;4233446;28;20054;-47
2021/08/11 09:58:19;;;;;;;8.90;4.95;;;26.90;52.30;;;;;;4231419;28;20067;-50
2021/08/11 10:00:21;;;;;;;9.85;5.55;;;26.90;53.10;;;;;;4228471;28;20382;-49
2021/08/11 10:02:25;;;;;;;8.25;6.85;;;26.90;53.50;;;;;;4231528;28;20048;-51
2021/08/11 10:04:41;;;;;;;7.95;6.38;;;27.00;54.00;;;;;;4231806;28;20044;-52
2021/08/11 10:06:45;;;;;;;11.60;9.07;;;27.00;54.10;;;;;;4231733;28;20116;-50
2021/08/11 10:08:47;;;;;;;10.15;8.10;;;27.00;53.70;;;;;;4231536;28;20055;-46
2021/08/11 10:10:50;;;;;;;10.77;9.00;;;27.00;53.90;;;;;;4231847;28;20111;-51
2021/08/11 10:12:52;;;;;;;9.40;8.05;;;27.00;53.40;;;;;;4232553;28;20052;-47
2021/08/11 10:15:00;;;;;;;9.57;8.60;;;27.00;54.00;;;;;;4230932;28;20048;-56
2021/08/11 10:17:04;;;;;;;34.22;9.50;;;27.00;53.80;;;;;;4230724;28;20039;-51
2021/08/11 10:19:08;;;;;;;14.52;8.27;;;27.00;53.90;;;;;;4232582;28;20044;-49
2021/08/11 10:21:11;;;;;;;12.43;8.38;;;27.00;53.80;;;;;;4232967;28;20046;-47
2021/08/11 10:23:16;;;;;;;12.60;7.55;;;27.00;54.10;;;;;;4232999;28;20044;-48
2021/08/11 10:25:21;;;;;;;13.73;8.35;;;27.00;54.00;;;;;;4232854;28;20044;-47
2021/08/11 10:27:23;;;;;;;9.65;7.25;;;27.00;53.70;;;;;;4232891;28;20054;-52
2021/08/11 10:29:26;;;;;;;10.88;7.00;;;27.00;53.50;;;;;;4232886;28;20582;-51
2021/08/11 10:31:30;;;;;;;10.90;7.72;;;27.00;53.20;;;;;;4232159;28;20044;-49
2021/08/11 10:33:32;;;;;;;10.00;5.72;;;27.10;53.90;;;;;;4231628;28;20051;-56
2021/08/11 10:35:35;;;;;;;8.07;7.28;;;27.00;53.20;;;;;;4212763;28;20071;-52
2021/08/11 10:37:41;;;;;;;9.43;6.13;;;27.00;53.60;;;;;;4230917;28;20048;-53
2021/08/11 10:39:43;;;;;;;8.98;6.43;;;27.00;53.50;;;;;;4230688;28;20052;-54
2021/08/11 10:41:45;;;;;;;9.93;6.40;;;27.10;53.80;;;;;;4230940;28;20112;-53
2021/08/11 10:43:47;;;;;;;10.07;5.80;;;27.00;53.60;;;;;;4231590;28;20047;-57
2021/08/11 10:45:58;;;;;;;7.50;5.40;;;27.00;53.70;;;;;;4231139;28;20040;-57